Time;durP1;ratioP1;P1;durP2;ratioP2;P2;SDS_P1;SDS_P2;PMS_P1;PMS_P2;Temp;Humidity;BMP_temperature;BMP_pressure;BME280_temperature;BME280_humidity;BME280_pressure;Samples;Min_cycle;Max_cycle;Signal;HPM_P1;HPM_P2
2021/05/20 00:00:37;;;;;;;5.10;3.50;;;9.70;88.90;;;;;;2074669;28;20541;-84
2021/05/20 00:01:38;;;;;;;4.75;3.55;;;9.70;88.90;;;;;;2065673;28;20026;-84
2021/05/20 00:02:39;;;;;;;4.60;3.65;;;9.70;89.00;;;;;;2072069;28;20053;-84
2021/05/20 00:03:40;;;;;;;5.15;3.78;;;9.70;89.00;;;;;;2071142;28;20129;-84
2021/05/20 00:04:42;;;;;;;4.80;3.75;;;9.60;89.00;;;;;;2081194;28;20571;-84
2021/05/20 00:05:43;;;;;;;4.68;3.55;;;9.60;89.00;;;;;;2071991;28;20463;-84
2021/05/20 00:06:43;;;;;;;4.50;3.55;;;9.60;89.10;;;;;;2065502;28;20027;-84
2021/05/20 00:07:45;;;;;;;4.95;3.67;;;9.60;89.10;;;;;;2064234;28;20405;-84
2021/05/20 00:08:46;;;;;;;5.05;3.95;;;9.60;89.20;;;;;;2065501;28;20405;-83
2021/05/20 00:09:47;;;;;;;5.45;4.03;;;9.60;89.20;;;;;;2061872;28;20029;-84
2021/05/20 00:10:48;;;;;;;4.43;3.63;;;9.60;89.20;;;;;;2056365;28;20117;-84
2021/05/20 00:11:48;;;;;;;5.72;3.83;;;9.60;89.20;;;;;;2072127;28;20468;-84
2021/05/20 00:12:49;;;;;;;5.50;4.03;;;9.50;89.20;;;;;;2066023;28;20022;-84
2021/05/20 00:13:50;;;;;;;5.30;3.90;;;9.50;89.30;;;;;;2059248;28;20388;-84
2021/05/20 00:14:50;;;;;;;4.82;3.65;;;9.50;89.30;;;;;;2070712;28;20022;-84
2021/05/20 00:15:51;;;;;;;5.07;3.90;;;9.50;89.30;;;;;;2074452;28;20037;-84
2021/05/20 00:16:52;;;;;;;5.22;3.90;;;9.50;89.30;;;;;;2072565;28;20042;-83
2021/05/20 00:17:52;;;;;;;5.25;4.05;;;9.50;89.30;;;;;;2073661;28;20049;-84
2021/05/20 00:18:53;;;;;;;6.15;4.03;;;9.50;89.30;;;;;;2077236;28;20411;-83
2021/05/20 00:19:54;;;;;;;5.90;4.60;;;9.50;89.30;;;;;;2069685;28;20030;-84
2021/05/20 00:20:55;;;;;;;6.20;4.13;;;9.50;89.30;;;;;;2072589;28;20069;-84
2021/05/20 00:21:55;;;;;;;5.20;3.92;;;9.60;89.40;;;;;;2078620;28;20037;-84
2021/05/20 00:22:56;;;;;;;4.90;3.95;;;9.50;89.20;;;;;;2074485;28;20026;-84
2021/05/20 00:23:56;;;;;;;6.63;4.40;;;9.50;89.20;;;;;;2063503;28;20385;-84
2021/05/20 00:24:57;;;;;;;6.07;4.68;;;9.50;89.20;;;;;;2046992;28;20405;-84
2021/05/20 00:25:58;;;;;;;6.13;4.53;;;9.50;89.20;;;;;;2050515;28;20028;-84
2021/05/20 00:26:58;;;;;;;6.00;4.53;;;9.60;89.30;;;;;;2076827;28;20040;-84
2021/05/20 00:27:59;;;;;;;6.80;4.55;;;9.60;89.30;;;;;;2071622;28;20076;-84
2021/05/20 00:29:00;;;;;;;6.32;4.80;;;9.50;89.20;;;;;;2063760;28;20038;-84
2021/05/20 00:30:01;;;;;;;6.47;5.00;;;9.50;89.20;;;;;;2059730;28;20533;-84
2021/05/20 00:31:01;;;;;;;6.53;4.90;;;9.60;89.20;;;;;;2070905;28;20132;-85
2021/05/20 00:32:02;;;;;;;6.38;4.95;;;9.50;89.20;;;;;;2071940;28;20030;-84
2021/05/20 00:33:03;;;;;;;6.30;4.72;;;9.60;89.20;;;;;;2072196;28;20066;-83
2021/05/20 00:34:05;;;;;;;7.07;4.97;;;9.50;89.20;;;;;;2076992;28;20030;-84
2021/05/20 00:35:06;;;;;;;6.25;5.13;;;9.50;89.30;;;;;;2073188;28;20427;-84
2021/05/20 00:36:07;;;;;;;7.32;5.43;;;9.50;89.20;;;;;;2071165;28;20030;-83
2021/05/20 00:37:08;;;;;;;7.57;5.43;;;9.60;89.30;;;;;;2056226;28;20428;-84
2021/05/20 00:38:11;;;;;;;7.97;6.00;;;9.60;89.30;;;;;;2064289;28;20409;-84
2021/05/20 00:39:12;;;;;;;7.90;5.90;;;9.60;89.30;;;;;;2073598;28;20045;-84
2021/05/20 00:40:13;;;;;;;7.40;5.78;;;9.60;89.30;;;;;;2070808;28;20463;-84
2021/05/20 00:41:14;;;;;;;7.70;5.63;;;9.50;89.20;;;;;;2071568;28;20072;-84
2021/05/20 00:42:15;;;;;;;7.50;6.00;;;9.50;89.30;;;;;;2075152;28;20022;-84
2021/05/20 00:43:15;;;;;;;6.60;5.53;;;9.50;89.30;;;;;;2067130;28;20030;-84
2021/05/20 00:44:16;;;;;;;7.60;5.97;;;9.50;89.30;;;;;;2053444;28;20081;-84
2021/05/20 00:45:17;;;;;;;7.60;5.75;;;9.50;89.30;;;;;;2054866;28;20031;-84
2021/05/20 00:46:18;;;;;;;8.40;6.25;;;9.50;89.30;;;;;;2062708;28;20497;-84
2021/05/20 00:47:20;;;;;;;7.25;5.93;;;9.60;89.30;;;;;;2071133;28;20025;-84
2021/05/20 00:48:21;;;;;;;7.57;5.97;;;9.50;89.30;;;;;;2072074;28;20465;-84
2021/05/20 00:49:22;;;;;;;8.00;6.30;;;9.50;89.20;;;;;;2066742;28;20102;-84
2021/05/20 00:50:22;;;;;;;7.63;5.95;;;9.50;89.20;;;;;;2063346;28;20034;-85
2021/05/20 00:51:23;;;;;;;8.20;6.10;;;9.50;89.30;;;;;;2071402;28;20072;-85
2021/05/20 00:52:24;;;;;;;7.90;6.35;;;9.50;89.30;;;;;;2065112;28;20038;-84
2021/05/20 00:53:25;;;;;;;7.93;6.20;;;9.50;89.30;;;;;;2067423;28;20014;-84
2021/05/20 00:54:26;;;;;;;7.47;6.18;;;9.50;90.00;;;;;;2073430;28;20041;-85
2021/05/20 00:55:31;;;;;;;8.63;6.57;;;9.50;89.40;;;;;;2065375;28;20046;-85
2021/05/20 00:56:33;;;;;;;6.65;5.65;;;9.50;89.50;;;;;;2065611;28;20038;-84
2021/05/20 00:57:34;;;;;;;8.00;5.97;;;9.50;89.50;;;;;;2073521;28;20109;-85
2021/05/20 00:58:35;;;;;;;7.80;6.10;;;9.50;89.50;;;;;;2074091;28;20022;-84
2021/05/20 00:59:36;;;;;;;7.38;5.97;;;9.40;89.40;;;;;;2076675;28;20120;-84
2021/05/20 01:00:37;;;;;;;7.07;5.75;;;9.40;89.50;;;;;;2078194;28;20030;-85
2021/05/20 01:01:38;;;;;;;6.63;5.50;;;9.40;89.50;;;;;;2071299;28;20038;-85
2021/05/20 01:02:40;;;;;;;7.88;5.82;;;9.40;89.60;;;;;;2069433;28;20054;-84
2021/05/20 01:03:41;;;;;;;7.13;5.70;;;9.40;89.70;;;;;;2076239;28;20034;-85
2021/05/20 01:04:41;;;;;;;7.35;6.05;;;9.40;89.70;;;;;;2062532;28;20475;-85
2021/05/20 01:05:42;;;;;;;7.13;5.82;;;9.40;89.80;;;;;;2073754;28;20037;-85
2021/05/20 01:06:43;;;;;;;7.88;6.30;;;9.40;89.80;;;;;;2073467;28;20473;-84
2021/05/20 01:07:43;;;;;;;7.20;5.90;;;9.40;89.80;;;;;;2073488;28;20030;-84
2021/05/20 01:08:44;;;;;;;8.82;6.10;;;9.40;89.80;;;;;;2074847;28;20156;-84
2021/05/20 01:09:45;;;;;;;8.48;6.35;;;9.30;89.80;;;;;;2080790;28;20045;-83
2021/05/20 01:10:45;;;;;;;6.95;5.60;;;9.30;90.10;;;;;;2072868;28;20907;-83
2021/05/20 01:11:47;;;;;;;8.10;6.40;;;9.40;89.80;;;;;;2073241;28;20474;-83
2021/05/20 01:12:48;;;;;;;7.45;6.07;;;9.30;89.80;;;;;;2065072;28;20030;-83
2021/05/20 01:13:48;;;;;;;8.05;6.32;;;9.40;89.80;;;;;;2057709;28;20035;-84
2021/05/20 01:14:49;;;;;;;8.30;6.55;;;9.30;89.80;;;;;;2064951;28;20077;-84
2021/05/20 01:15:50;;;;;;;8.20;6.75;;;9.30;89.80;;;;;;2073360;28;20030;-84
2021/05/20 01:16:50;;;;;;;9.50;7.47;;;9.30;89.80;;;;;;2081882;28;20034;-84
2021/05/20 01:18:02;;;;;;;10.70;7.13;;;9.30;89.70;;;;;;2079704;28;20022;-84
2021/05/20 01:19:04;;;;;;;9.10;6.93;;;9.30;89.80;;;;;;2075300;28;20052;-84
2021/05/20 01:20:05;;;;;;;9.00;7.07;;;9.30;89.80;;;;;;2075861;28;20052;-83
2021/05/20 01:21:06;;;;;;;9.38;7.00;;;9.30;89.80;;;;;;2074196;28;20132;-83
2021/05/20 01:22:07;;;;;;;9.20;6.65;;;9.30;89.80;;;;;;2078010;28;20404;-84
2021/05/20 01:23:10;;;;;;;10.23;7.38;;;9.30;89.80;;;;;;2076533;28;20036;-84
2021/05/20 01:24:12;;;;;;;8.48;6.97;;;9.30;89.90;;;;;;2077468;28;20029;-83
2021/05/20 01:25:13;;;;;;;8.70;7.32;;;9.20;90.00;;;;;;2077705;28;20084;-84
2021/05/20 01:26:14;;;;;;;10.30;8.18;;;9.20;90.00;;;;;;2080388;28;20025;-84
2021/05/20 01:27:15;;;;;;;9.57;7.60;;;9.20;90.00;;;;;;2072515;28;20032;-83
2021/05/20 01:28:21;;;;;;;9.43;7.43;;;9.20;90.00;;;;;;2073161;28;20018;-84
2021/05/20 01:29:22;;;;;;;11.13;7.97;;;9.20;90.00;;;;;;2081405;28;20535;-84
2021/05/20 01:30:22;;;;;;;10.60;8.48;;;9.20;90.00;;;;;;2081833;28;20061;-84
2021/05/20 01:31:23;;;;;;;9.57;8.23;;;9.20;90.00;;;;;;2076841;28;20037;-84
2021/05/20 01:32:24;;;;;;;11.32;8.32;;;9.20;90.00;;;;;;2073435;28;20022;-83
2021/05/20 01:33:24;;;;;;;10.93;8.40;;;9.10;90.00;;;;;;2073728;28;20056;-84
2021/05/20 01:34:25;;;;;;;10.95;8.52;;;9.20;90.00;;;;;;2074424;28;20022;-83
2021/05/20 01:35:26;;;;;;;10.95;8.15;;;9.20;90.00;;;;;;2065372;28;20030;-83
2021/05/20 01:36:28;;;;;;;10.77;8.75;;;9.20;90.00;;;;;;2080455;28;20105;-84
2021/05/20 01:37:29;;;;;;;10.45;8.20;;;9.20;90.00;;;;;;2077903;28;20399;-83
2021/05/20 01:39:39;;;;;;;11.23;9.10;;;9.20;90.00;;;;;;2079747;28;20036;-84
2021/05/20 01:40:40;;;;;;;11.27;8.55;;;9.20;90.10;;;;;;2078936;28;20438;-84
2021/05/20 01:41:41;;;;;;;12.02;9.10;;;9.20;90.10;;;;;;2069570;28;20034;-83
2021/05/20 01:42:42;;;;;;;11.68;9.15;;;9.20;90.00;;;;;;2074422;28;20531;-84
2021/05/20 01:43:42;;;;;;;12.30;9.57;;;9.10;90.00;;;;;;2086516;28;20033;-83
2021/05/20 01:44:43;;;;;;;12.20;9.70;;;9.10;90.10;;;;;;2076848;28;20030;-83
2021/05/20 01:45:51;;;;;;;11.45;9.05;;;9.10;90.10;;;;;;2067469;28;20046;-84
2021/05/20 01:46:51;;;;;;;11.85;8.82;;;9.10;90.10;;;;;;2070190;28;20518;-84
2021/05/20 01:47:52;;;;;;;11.40;9.27;;;9.10;90.10;;;;;;2077823;28;20049;-84
2021/05/20 01:48:53;;;;;;;11.65;9.52;;;9.10;90.10;;;;;;2072837;28;20029;-83
2021/05/20 01:49:56;;;;;;;12.45;10.27;;;9.10;90.10;;;;;;2065248;28;20081;-84
2021/05/20 01:51:16;;;;;;;12.15;9.68;;;9.10;90.10;;;;;;2057464;28;20106;-84
2021/05/20 01:52:18;;;;;;;13.40;10.00;;;9.10;90.10;;;;;;2066159;28;20033;-84
2021/05/20 01:53:18;;;;;;;12.38;9.65;;;9.10;90.10;;;;;;2067746;28;20030;-84
2021/05/20 01:54:19;;;;;;;13.15;10.05;;;9.10;90.30;;;;;;2055877;28;20393;-84
2021/05/20 01:55:20;;;;;;;12.88;9.82;;;9.10;90.10;;;;;;2065189;28;20023;-84
2021/05/20 01:56:21;;;;;;;14.15;10.50;;;9.00;90.10;;;;;;2081318;28;20123;-83
2021/05/20 01:57:21;;;;;;;13.82;11.02;;;9.00;90.10;;;;;;2081308;28;20033;-83
2021/05/20 01:58:22;;;;;;;14.70;11.00;;;9.00;90.10;;;;;;2076268;28;20136;-83
2021/05/20 01:59:23;;;;;;;14.48;11.13;;;9.00;90.40;;;;;;2068459;28;20054;-84
2021/05/20 02:00:23;;;;;;;14.55;11.48;;;9.00;90.10;;;;;;2071999;28;20602;-85
2021/05/20 02:01:24;;;;;;;13.32;11.10;;;9.00;90.10;;;;;;2057186;28;20137;-84
2021/05/20 02:02:24;;;;;;;13.80;11.40;;;9.00;90.10;;;;;;2050738;28;20078;-83
2021/05/20 02:03:26;;;;;;;13.93;11.15;;;9.00;90.20;;;;;;2058303;28;20492;-84
2021/05/20 02:04:27;;;;;;;15.95;11.60;;;9.10;90.20;;;;;;2074566;28;20057;-84
2021/05/20 02:05:27;;;;;;;15.15;12.00;;;9.00;90.20;;;;;;2075551;28;20022;-85
2021/05/20 02:06:28;;;;;;;15.00;12.23;;;9.10;90.20;;;;;;2075829;28;20026;-84
2021/05/20 02:07:29;;;;;;;15.90;12.02;;;9.10;90.20;;;;;;2077281;28;20029;-85
2021/05/20 02:08:31;;;;;;;15.05;12.13;;;9.10;90.20;;;;;;2072875;28;20033;-84
2021/05/20 02:09:32;;;;;;;16.38;13.00;;;9.10;90.50;;;;;;2070491;28;20361;-85
2021/05/20 02:10:33;;;;;;;16.45;12.70;;;9.10;90.20;;;;;;2072983;28;20080;-85
2021/05/20 02:11:33;;;;;;;17.75;13.52;;;9.10;90.20;;;;;;2073082;28;20052;-85
2021/05/20 02:12:34;;;;;;;18.88;14.13;;;9.10;90.20;;;;;;2072938;28;20131;-85
2021/05/20 02:13:35;;;;;;;19.00;13.88;;;9.10;90.20;;;;;;2059759;28;20537;-85
2021/05/20 02:14:36;;;;;;;18.08;13.70;;;9.20;90.20;;;;;;2066515;28;20026;-85
2021/05/20 02:15:37;;;;;;;20.38;14.35;;;9.20;90.20;;;;;;2066423;28;20106;-85
2021/05/20 02:16:37;;;;;;;19.27;13.90;;;9.20;90.20;;;;;;2075711;28;20112;-85
2021/05/20 02:17:38;;;;;;;20.05;14.52;;;9.20;90.20;;;;;;2069503;28;20053;-85
2021/05/20 02:18:39;;;;;;;20.23;13.75;;;9.20;90.20;;;;;;2072830;28;20105;-84
2021/05/20 02:19:40;;;;;;;20.17;14.70;;;9.20;90.20;;;;;;2074360;28;20509;-84
2021/05/20 02:20:40;;;;;;;20.77;14.68;;;9.20;90.20;;;;;;2073387;28;20085;-84
2021/05/20 02:21:41;;;;;;;21.42;15.50;;;9.20;90.20;;;;;;2060778;28;20031;-85
2021/05/20 02:22:42;;;;;;;20.67;15.25;;;9.20;90.20;;;;;;2073435;28;20168;-83
2021/05/20 02:23:42;;;;;;;21.27;16.48;;;9.20;90.20;;;;;;2065979;28;21425;-83
2021/05/20 02:24:43;;;;;;;21.67;16.30;;;9.20;90.20;;;;;;2068004;28;20033;-84
2021/05/20 02:25:44;;;;;;;22.33;16.33;;;9.20;90.20;;;;;;2070360;28;20026;-84
2021/05/20 02:26:44;;;;;;;22.27;15.27;;;9.20;90.30;;;;;;2076559;28;20154;-84
2021/05/20 02:27:46;;;;;;;20.75;15.20;;;9.20;90.30;;;;;;2074326;28;20511;-84
2021/05/20 02:28:46;;;;;;;20.25;14.48;;;9.20;90.30;;;;;;2074500;28;20040;-83
2021/05/20 02:29:47;;;;;;;21.15;14.90;;;9.20;90.40;;;;;;2077359;28;20100;-85
2021/05/20 02:30:48;;;;;;;20.83;15.43;;;9.20;90.30;;;;;;2068948;28;20049;-84
2021/05/20 02:31:48;;;;;;;20.05;14.60;;;9.20;90.40;;;;;;2065819;28;20118;-83
2021/05/20 02:32:49;;;;;;;20.40;15.93;;;9.20;90.40;;;;;;2074035;28;20151;-83
2021/05/20 02:33:50;;;;;;;20.25;15.38;;;9.20;90.40;;;;;;2078586;28;20401;-84
2021/05/20 02:34:51;;;;;;;19.35;14.90;;;9.20;90.60;;;;;;2073098;28;20092;-84
2021/05/20 02:35:51;;;;;;;20.70;15.35;;;9.30;90.40;;;;;;2066030;28;20023;-84
2021/05/20 02:36:52;;;;;;;21.05;15.32;;;9.20;90.30;;;;;;2057047;28;20065;-84
2021/05/20 02:37:53;;;;;;;19.95;15.15;;;9.30;90.40;;;;;;2077771;28;20086;-84
2021/05/20 02:38:54;;;;;;;20.08;14.80;;;9.30;90.60;;;;;;2079623;28;20413;-84
2021/05/20 02:39:55;;;;;;;19.05;14.45;;;9.30;90.40;;;;;;2069176;28;20452;-84
2021/05/20 02:40:55;;;;;;;21.15;15.63;;;9.30;90.40;;;;;;2080083;28;20092;-84
2021/05/20 02:41:56;;;;;;;20.65;15.57;;;9.30;90.30;;;;;;2065385;28;20078;-84
2021/05/20 02:42:56;;;;;;;19.48;14.75;;;9.30;90.30;;;;;;2057203;28;20026;-84
2021/05/20 02:43:57;;;;;;;21.45;15.05;;;9.40;90.30;;;;;;2058563;28;20034;-84
2021/05/20 02:44:58;;;;;;;20.67;15.00;;;9.40;90.30;;;;;;2068897;28;20121;-84
2021/05/20 02:46:01;;;;;;;21.73;15.65;;;9.40;90.40;;;;;;2068841;28;20022;-84
2021/05/20 02:47:01;;;;;;;21.58;15.48;;;9.40;90.30;;;;;;2072625;28;20049;-84
2021/05/20 02:48:02;;;;;;;22.00;16.30;;;9.40;90.30;;;;;;2078755;28;20487;-84
2021/05/20 02:49:03;;;;;;;21.77;16.08;;;9.40;90.30;;;;;;2077005;28;20058;-84
2021/05/20 02:50:05;;;;;;;24.00;15.38;;;9.40;90.30;;;;;;2081185;28;20084;-84
2021/05/20 02:51:05;;;;;;;21.70;16.17;;;9.40;90.30;;;;;;2080945;28;20025;-84
2021/05/20 02:52:06;;;;;;;22.42;15.98;;;9.40;90.30;;;;;;2075147;28;20026;-84
2021/05/20 02:53:06;;;;;;;23.63;15.57;;;9.40;90.40;;;;;;2070850;28;20033;-84
2021/05/20 02:54:07;;;;;;;33.60;15.77;;;9.40;90.30;;;;;;2081166;28;20527;-84
2021/05/20 02:55:08;;;;;;;28.77;16.33;;;9.40;90.40;;;;;;2072895;28;20049;-84
2021/05/20 02:56:09;;;;;;;21.58;15.77;;;9.40;90.30;;;;;;2071070;28;20472;-84
2021/05/20 02:57:09;;;;;;;24.40;16.55;;;9.40;90.40;;;;;;2073076;28;20266;-84
2021/05/20 02:58:13;;;;;;;24.00;16.08;;;9.40;90.40;;;;;;2072457;28;20026;-83
2021/05/20 02:59:14;;;;;;;25.35;15.77;;;9.40;90.40;;;;;;2060657;28;20037;-84
2021/05/20 03:00:17;;;;;;;24.98;14.82;;;9.40;90.40;;;;;;2060799;28;20463;-84
2021/05/20 03:01:22;;;;;;;19.83;14.02;;;9.40;90.40;;;;;;2073209;28;20101;-83
2021/05/20 03:02:23;;;;;;;21.08;14.02;;;9.40;90.50;;;;;;2073268;28;20472;-85
2021/05/20 03:03:23;;;;;;;22.02;13.95;;;9.40;90.50;;;;;;2079563;28;20049;-83
2021/05/20 03:04:24;;;;;;;20.17;13.30;;;9.40;90.50;;;;;;2072740;28;20391;-83
2021/05/20 03:05:25;;;;;;;21.67;12.93;;;9.50;90.50;;;;;;2065007;28;20036;-84
2021/05/20 03:06:26;;;;;;;31.05;14.60;;;9.50;90.50;;;;;;2080186;28;20358;-84
2021/05/20 03:07:26;;;;;;;23.25;13.90;;;9.50;90.80;;;;;;2077893;28;20798;-84
2021/05/20 03:08:28;;;;;;;21.25;14.38;;;9.50;90.50;;;;;;2072261;28;20026;-83
2021/05/20 03:09:29;;;;;;;24.63;14.20;;;9.50;90.50;;;;;;2064682;28;20030;-83
2021/05/20 03:10:30;;;;;;;28.50;15.45;;;9.50;90.50;;;;;;2064449;28;20022;-84
2021/05/20 03:11:32;;;;;;;20.73;14.77;;;9.50;90.50;;;;;;2069522;28;20037;-84
2021/05/20 03:12:33;;;;;;;21.92;14.70;;;9.50;90.50;;;;;;2070704;28;20076;-84
2021/05/20 03:13:34;;;;;;;24.70;15.05;;;9.40;90.50;;;;;;2064014;28;20508;-84
2021/05/20 03:14:34;;;;;;;19.67;14.57;;;9.40;90.50;;;;;;2064251;28;20073;-83
2021/05/20 03:15:35;;;;;;;26.52;14.43;;;9.40;90.60;;;;;;2072616;28;20041;-84
2021/05/20 03:16:36;;;;;;;22.90;13.88;;;9.40;90.60;;;;;;2075039;28;20026;-84
2021/05/20 03:17:37;;;;;;;22.13;14.50;;;9.40;90.60;;;;;;2070811;28;20037;-83
2021/05/20 03:18:37;;;;;;;36.58;15.48;;;9.40;90.80;;;;;;2071906;28;20026;-84
2021/05/20 03:19:40;;;;;;;22.90;13.88;;;9.40;90.60;;;;;;2065840;28;20106;-84
2021/05/20 03:20:41;;;;;;;20.80;13.75;;;9.30;90.60;;;;;;2057004;28;20039;-85
2021/05/20 03:21:42;;;;;;;21.67;13.90;;;9.30;90.60;;;;;;2063182;28;20129;-84
2021/05/20 03:22:45;;;;;;;21.13;12.85;;;9.30;90.70;;;;;;2073120;28;20037;-84
2021/05/20 03:23:46;;;;;;;21.10;13.13;;;9.30;90.70;;;;;;2076865;28;20028;-84
2021/05/20 03:24:46;;;;;;;16.42;12.45;;;9.30;90.70;;;;;;2077835;28;20161;-84
2021/05/20 03:25:47;;;;;;;19.58;12.50;;;9.40;90.70;;;;;;2067433;28;20029;-84
2021/05/20 03:26:48;;;;;;;22.23;13.35;;;9.30;90.70;;;;;;2072272;28;20037;-85
2021/05/20 03:27:49;;;;;;;20.77;12.80;;;9.40;90.70;;;;;;2072537;28;20538;-85
2021/05/20 03:28:50;;;;;;;17.10;12.38;;;9.40;90.70;;;;;;2077365;28;20080;-84
2021/05/20 03:29:50;;;;;;;17.65;12.40;;;9.40;90.70;;;;;;2079116;28;20033;-84
2021/05/20 03:30:51;;;;;;;20.20;12.93;;;9.30;90.70;;;;;;2072330;28;20515;-85
2021/05/20 03:31:52;;;;;;;18.27;12.65;;;9.40;90.70;;;;;;2076184;28;20038;-85
2021/05/20 03:32:52;;;;;;;18.17;12.48;;;9.40;90.70;;;;;;2080131;28;20026;-85
2021/05/20 03:33:53;;;;;;;19.58;13.45;;;9.40;90.70;;;;;;2080480;28;20029;-84
2021/05/20 03:34:54;;;;;;;18.23;12.70;;;9.30;90.70;;;;;;2077441;28;20057;-84
2021/05/20 03:35:57;;;;;;;19.50;13.13;;;9.30;90.70;;;;;;2078367;28;20491;-84
2021/05/20 03:36:58;;;;;;;20.63;13.02;;;9.30;90.70;;;;;;2070988;28;20034;-84
2021/05/20 03:37:58;;;;;;;17.67;13.00;;;9.30;91.00;;;;;;2064504;28;20120;-84
2021/05/20 03:38:59;;;;;;;19.25;13.10;;;9.30;90.80;;;;;;2071899;28;20026;-84
2021/05/20 03:40:00;;;;;;;20.50;13.45;;;9.30;90.80;;;;;;2050860;28;20035;-84
2021/05/20 03:41:01;;;;;;;16.77;12.15;;;9.40;90.80;;;;;;2056326;28;20521;-85
2021/05/20 03:42:03;;;;;;;17.70;13.55;;;9.40;90.80;;;;;;2061494;28;20096;-85
2021/05/20 03:43:03;;;;;;;18.10;12.98;;;9.40;90.80;;;;;;2071413;28;20026;-84
2021/05/20 03:44:04;;;;;;;19.48;12.70;;;9.40;90.70;;;;;;2070841;28;20103;-85
2021/05/20 03:45:06;;;;;;;19.65;13.18;;;9.40;90.70;;;;;;2063701;28;20563;-85
2021/05/20 03:46:07;;;;;;;16.83;12.38;;;9.40;90.70;;;;;;2064446;28;20461;-84
2021/05/20 03:47:08;;;;;;;17.35;12.07;;;9.40;90.70;;;;;;2070498;28;20080;-85
2021/05/20 03:48:08;;;;;;;17.85;12.90;;;9.40;90.70;;;;;;2064684;28;20022;-85
2021/05/20 03:49:09;;;;;;;15.77;11.63;;;9.40;90.70;;;;;;2066010;28;20096;-84
2021/05/20 03:50:10;;;;;;;19.75;12.90;;;9.40;90.70;;;;;;2061576;28;20078;-84
2021/05/20 03:51:10;;;;;;;18.00;12.35;;;9.40;90.70;;;;;;2065555;28;20097;-84
2021/05/20 03:52:11;;;;;;;18.15;12.52;;;9.40;90.70;;;;;;2071264;28;20061;-84
2021/05/20 03:53:12;;;;;;;16.60;11.85;;;9.50;91.00;;;;;;2067876;28;20037;-85
2021/05/20 03:54:12;;;;;;;16.27;12.05;;;9.50;90.70;;;;;;2064303;28;20069;-84
2021/05/20 03:55:13;;;;;;;18.70;13.60;;;9.40;90.90;;;;;;2062423;28;20405;-84
2021/05/20 03:56:14;;;;;;;21.67;11.90;;;9.40;90.60;;;;;;2067507;28;20387;-84
2021/05/20 03:57:14;;;;;;;19.45;12.52;;;9.40;90.60;;;;;;2080134;28;20175;-84
2021/05/20 03:58:15;;;;;;;19.67;12.70;;;9.30;90.60;;;;;;2072248;28;20025;-84
2021/05/20 03:59:16;;;;;;;19.08;12.57;;;9.40;90.70;;;;;;2078647;28;20042;-84
2021/05/20 04:00:17;;;;;;;18.17;12.40;;;9.30;91.00;;;;;;2069871;28;20559;-84
2021/05/20 04:01:18;;;;;;;20.58;12.77;;;9.30;90.70;;;;;;2057638;28;20047;-85
2021/05/20 04:02:19;;;;;;;21.58;12.80;;;9.30;90.70;;;;;;2057390;28;20027;-85
2021/05/20 04:03:27;;;;;;;17.40;12.50;;;9.30;90.70;;;;;;2071281;28;20476;-85
2021/05/20 04:04:27;;;;;;;16.58;12.32;;;9.30;90.70;;;;;;2077712;28;20024;-84
2021/05/20 04:05:28;;;;;;;17.38;11.95;;;9.30;90.70;;;;;;2071836;28;20136;-85
2021/05/20 04:06:28;;;;;;;17.67;12.20;;;9.30;90.70;;;;;;2065414;28;20476;-85
2021/05/20 04:07:29;;;;;;;17.15;12.27;;;9.20;90.70;;;;;;2063911;28;20030;-85
2021/05/20 04:08:30;;;;;;;17.25;12.45;;;9.20;90.80;;;;;;2064415;28;20380;-84
2021/05/20 04:09:31;;;;;;;21.05;13.10;;;9.20;90.80;;;;;;2076846;28;20039;-85
2021/05/20 04:10:31;;;;;;;19.10;13.07;;;9.20;90.80;;;;;;2064231;28;20030;-85
2021/05/20 04:11:32;;;;;;;15.75;11.40;;;9.20;90.80;;;;;;2062879;28;20129;-85
2021/05/20 04:12:32;;;;;;;19.58;12.50;;;9.20;90.80;;;;;;2064071;28;20038;-85
2021/05/20 04:13:37;;;;;;;16.27;12.10;;;9.20;90.80;;;;;;2055082;28;20777;-85
2021/05/20 04:14:38;;;;;;;17.27;12.48;;;9.20;90.80;;;;;;2063414;28;20105;-85
2021/05/20 04:15:39;;;;;;;18.23;12.38;;;9.20;90.90;;;;;;2062949;28;20034;-84
2021/05/20 04:16:39;;;;;;;18.20;12.10;;;9.20;90.90;;;;;;2064341;28;20762;-84
2021/05/20 04:17:40;;;;;;;17.90;11.95;;;9.30;90.90;;;;;;2076031;28;20025;-85
2021/05/20 04:18:41;;;;;;;15.77;11.68;;;9.30;90.80;;;;;;2065544;28;20026;-84
2021/05/20 04:19:42;;;;;;;18.10;12.60;;;9.30;90.80;;;;;;2063622;28;20034;-84
2021/05/20 04:20:43;;;;;;;16.98;11.82;;;9.30;90.80;;;;;;2064009;28;20527;-85
2021/05/20 04:21:44;;;;;;;16.15;11.48;;;9.30;90.80;;;;;;2072355;28;20022;-85
2021/05/20 04:22:44;;;;;;;17.98;12.18;;;9.40;90.80;;;;;;2067211;28;20072;-84
2021/05/20 04:23:46;;;;;;;18.42;12.35;;;9.40;90.80;;;;;;2070735;28;20537;-84
2021/05/20 04:24:47;;;;;;;16.75;12.02;;;9.40;90.70;;;;;;2074407;28;20555;-83
2021/05/20 04:25:48;;;;;;;16.27;11.52;;;9.40;90.70;;;;;;2065275;28;20034;-84
2021/05/20 04:26:49;;;;;;;17.40;11.35;;;9.40;90.70;;;;;;2067349;28;20061;-84
2021/05/20 04:27:49;;;;;;;15.88;11.18;;;9.40;90.70;;;;;;2071771;28;20424;-84
2021/05/20 04:28:51;;;;;;;16.98;11.52;;;9.40;90.70;;;;;;2079948;28;20075;-84
2021/05/20 04:29:51;;;;;;;17.40;11.85;;;9.40;90.60;;;;;;2074123;28;20411;-84
2021/05/20 04:30:52;;;;;;;15.65;10.98;;;9.40;90.60;;;;;;2056387;28;20368;-84
2021/05/20 04:31:53;;;;;;;17.05;11.27;;;9.40;90.60;;;;;;2063872;28;20078;-83
2021/05/20 04:32:54;;;;;;;15.65;11.23;;;9.40;90.60;;;;;;2073299;28;20041;-84
2021/05/20 04:33:54;;;;;;;16.98;11.45;;;9.40;90.60;;;;;;2074521;28;20030;-84
2021/05/20 04:34:55;;;;;;;15.57;10.75;;;9.40;90.60;;;;;;2071911;28;20033;-84
2021/05/20 04:35:56;;;;;;;17.10;11.88;;;9.40;90.60;;;;;;2064495;28;20057;-84
2021/05/20 04:36:57;;;;;;;17.95;11.73;;;9.40;90.60;;;;;;2070910;28;20435;-84
2021/05/20 04:37:57;;;;;;;18.00;12.25;;;9.40;90.60;;;;;;2074128;28;20041;-85
2021/05/20 04:38:58;;;;;;;16.70;11.82;;;9.40;90.90;;;;;;2081659;28;20113;-84
2021/05/20 04:39:58;;;;;;;15.75;11.38;;;9.40;90.60;;;;;;2073175;28;20115;-84
2021/05/20 04:40:59;;;;;;;16.38;10.48;;;9.40;90.60;;;;;;2063286;28;20040;-84
2021/05/20 04:42:00;;;;;;;16.63;11.23;;;9.40;90.60;;;;;;2069986;28;20033;-83
2021/05/20 04:43:01;;;;;;;16.83;11.23;;;9.40;90.60;;;;;;2075768;28;20544;-83
2021/05/20 04:44:02;;;;;;;15.65;10.95;;;9.40;90.60;;;;;;2071713;28;20452;-83
2021/05/20 04:45:03;;;;;;;17.05;10.90;;;9.40;90.60;;;;;;2066900;28;20030;-83
2021/05/20 04:46:04;;;;;;;16.27;11.27;;;9.40;90.60;;;;;;2080321;28;20029;-83
2021/05/20 04:47:05;;;;;;;17.67;11.73;;;9.40;90.60;;;;;;2075057;28;20117;-83
2021/05/20 04:48:06;;;;;;;17.33;11.30;;;9.40;90.60;;;;;;2076706;28;20028;-84
2021/05/20 04:49:11;;;;;;;18.42;11.30;;;9.40;90.60;;;;;;2077136;28;20025;-83
2021/05/20 04:50:14;;;;;;;17.85;12.27;;;9.40;90.60;;;;;;2074261;28;20025;-83
2021/05/20 04:51:17;;;;;;;17.27;11.65;;;9.40;90.60;;;;;;2076126;28;20431;-84
2021/05/20 04:52:18;;;;;;;17.17;11.73;;;9.40;90.60;;;;;;2076861;28;20026;-83
2021/05/20 04:53:19;;;;;;;18.75;12.48;;;9.40;90.60;;;;;;2078653;28;20033;-83
2021/05/20 04:54:19;;;;;;;19.08;12.77;;;9.40;90.60;;;;;;2062937;28;20019;-83
2021/05/20 04:55:20;;;;;;;17.15;11.65;;;9.40;90.60;;;;;;2072147;28;20022;-84
2021/05/20 04:56:24;;;;;;;17.33;11.45;;;9.40;90.80;;;;;;2064018;28;20026;-83
2021/05/20 04:57:24;;;;;;;17.63;11.73;;;9.40;90.60;;;;;;2065798;28;20137;-84
2021/05/20 04:58:25;;;;;;;16.40;11.18;;;9.40;90.60;;;;;;2078703;28;20474;-84
2021/05/20 04:59:26;;;;;;;16.27;11.80;;;9.40;90.60;;;;;;2065940;28;20130;-84
2021/05/20 05:00:26;;;;;;;16.67;11.52;;;9.40;90.60;;;;;;2078719;28;20137;-84
2021/05/20 05:01:27;;;;;;;17.02;11.63;;;9.40;90.60;;;;;;2063125;28;20027;-84
2021/05/20 05:02:28;;;;;;;16.35;11.65;;;9.50;90.60;;;;;;2063159;28;20031;-84
2021/05/20 05:03:29;;;;;;;16.13;11.48;;;9.50;90.50;;;;;;2062862;28;20080;-84
2021/05/20 05:04:29;;;;;;;17.42;11.77;;;9.50;90.50;;;;;;2071768;28;20033;-84
2021/05/20 05:05:30;;;;;;;17.95;12.13;;;9.50;90.50;;;;;;2072081;28;20309;-84
2021/05/20 05:06:31;;;;;;;17.48;11.80;;;9.50;90.50;;;;;;2071593;28;20449;-83
2021/05/20 05:07:32;;;;;;;20.50;12.55;;;9.50;90.40;;;;;;2071830;28;20460;-84
2021/05/20 05:08:32;;;;;;;21.00;13.00;;;9.50;90.40;;;;;;2063795;28;20089;-84
2021/05/20 05:09:33;;;;;;;17.55;12.60;;;9.50;90.40;;;;;;2063456;28;20046;-84
2021/05/20 05:10:33;;;;;;;18.13;12.23;;;9.50;90.40;;;;;;2063742;28;20571;-84
2021/05/20 05:11:34;;;;;;;17.58;12.38;;;9.50;90.40;;;;;;2071677;28;20030;-84
2021/05/20 05:12:35;;;;;;;22.00;13.88;;;9.50;90.40;;;;;;2071397;28;20116;-83
2021/05/20 05:13:35;;;;;;;20.80;13.23;;;9.50;90.40;;;;;;2062778;28;20432;-84
2021/05/20 05:14:36;;;;;;;17.77;11.98;;;9.50;90.50;;;;;;2065315;28;20066;-83
2021/05/20 05:15:37;;;;;;;20.00;12.98;;;9.50;90.50;;;;;;2055791;28;20023;-84
2021/05/20 05:16:38;;;;;;;19.15;12.60;;;9.50;90.50;;;;;;2066394;28;20076;-83
2021/05/20 05:17:38;;;;;;;22.23;13.40;;;9.50;90.50;;;;;;2060937;28;20026;-84